x

North Equatorial Two - 890 Nm East Of Martinique (41041) Wave Buoy

8:50am - Wed 17th Sep 2014 All times are UTC.

  • Sig Wave height 5.9ft
  • Swell Direction
  • Peak Period 7s
  • Average Period 6s
  • Wind
    18mph, 20mph gusts
  • Sea Temp 83°f
  • Air Temp 82°f
  • Sea Pressure 1013.1mb

More Historic Weather Station data

Upgrade to MSW Pro to gain access to the past 30 days of data for over 8000 Wavebouys and Weather Stations around the globe.

Join Pro

Comparision Forecast

View Surf forecast
   
Wed 09/17 8:50am 6ft 7s 6s 18 20 mph 1013.1mb 83f 82f
7:50am 6ft 9s 6s 20 22 mph 1012.7mb 83f 82f
6:50am 6ft 9s 6s 18 22 mph 1012.5mb 83f 82f
5:50am 5.5ft 10s 6s 18 22 mph 1012.8mb 83f 82f
4:50am 5ft 8s 6s 13 18 mph 1013.6mb 83f 81f
3:50am 5ft 10s 6s 18 25 mph 1014.2mb 83f 82f
2:50am 5.5ft 8s 6s 16 18 mph 1014.8mb 83f 82f
1:50am 5ft 11s 6s 16 18 mph 1015.1mb 83f 82f
12:50am 5ft 9s 6s 16 18 mph 1015.2mb 83f 82f
Tue 09/16 11:50pm 5ft 11s 6s 16 18 mph 1014.8mb 83f 82f
10:50pm 4.5ft 10s 6s 16 18 mph 1014.2mb 83f 82f
8:50pm 5ft 9s 6s 11 13 mph 1013.6mb 83f 81f
7:50pm 5ft 10s 6s 13 16 mph 1013.3mb 83f 82f
6:50pm 5ft 9s 6s 11 13 mph 1013mb 83f 82f
5:50pm 5ft 8s 6s 13 16 mph 1012.8mb 83f 82f
4:50pm 5ft 8s 6s 16 18 mph 1013.5mb 83f 82f
3:50pm 5ft 9s 6s 13 16 mph 1014.1mb 83f 82f
2:50pm 5ft 8s 6s 13 16 mph 1014.9mb 83f 82f
1:50pm 5ft 8s 6s 16 18 mph 1015.4mb 83f 82f
12:50pm 5ft 8s 6s 11
mph
1015.9mb 83f 82f
11:50am 5.5ft 8s 6s 13 16 mph 1015.5mb 83f 82f
10:50am 5.5ft 8s 7s 13 18 mph 1014.7mb 83f 82f
9:50am 5.5ft 8s 7s 11 13 mph 1014.3mb 83f 82f
8:50am 6.5ft 8s 7s 11 13 mph 1014.1mb 83f 82f
7:50am 6ft 8s 7s 11 16 mph 1013.7mb 83f 82f
6:50am 6ft 9s 7s 11 13 mph 1013.4mb 83f 81f
5:50am 6ft 9s 7s 11 13 mph 1013.6mb 83f 81f
4:50am 6ft 9s 7s 11 13 mph 1013.8mb 83f 82f
3:50am 6ft 8s 7s 11 13 mph 1014mb 83f 82f
2:50am 6ft 8s 7s 11 13 mph 1014.4mb 83f 81f
1:50am 6ft 8s 7s 11 13 mph 1015.2mb 83f 82f
12:50am 6ft 11s 7s 11 13 mph 1015.6mb 83f 82f
Mon 09/15 11:50pm 6ft 11s 7s 13
mph
1015.1mb 83f 82f
10:50pm 5.5ft 11s 7s 13 18 mph 1014.3mb 83f 82f
9:50pm 5ft 12s 7s 11 13 mph 1014mb 83f 82f
8:50pm 5ft 8s 7s 9 11 mph 1013.3mb 84f 82f
7:50pm 5.5ft 12s 8s 9 11 mph 1013mb 84f 82f
6:50pm 5ft 11s 7s 9 11 mph 1012.9mb 84f 82f
5:50pm 5ft 12s 7s 9
mph
1012.8mb 84f 82f
4:50pm 6ft 12s 8s 9 11 mph 1013mb 84f 82f
3:50pm 5ft 12s 7s 7 9 mph 1013.4mb 84f 81f
2:50pm 5ft 12s 7s 7 9 mph 1014.3mb 84f 81f
1:50pm 6ft 12s 7s 7 9 mph 1014.9mb 83f 81f
12:50pm 5ft 11s 7s 7
mph
1014.9mb 83f 81f
11:50am 5ft 13s 7s 11 13 mph 1014.7mb 83f 80f
10:50am 6ft 13s 7s 9 11 mph 1014.1mb 83f 81f
9:50am 5.5ft 13s 7s 9 11 mph 1013.9mb 83f 81f
8:50am 5.5ft 13s 7s 11 13 mph 1013.3mb 83f 81f
7:50am 4.5ft 13s 6s 13 18 mph 1013.1mb 83f 80f
6:50am 5.5ft 14s 7s 9 11 mph 1013.3mb 83f 81f
5:50am 6ft 14s 7s 2 4 mph 1013.6mb 83f 78f
4:50am 5.5ft 14s 7s 11 13 mph 1014.1mb 83f 77f
3:50am 5.5ft 14s 7s 9 11 mph 1014.2mb 83f 81f
2:50am 5ft 14s 7s 11 13 mph 1014.6mb 83f 82f
1:50am 5ft 15s 6s 13 16 mph 1014.8mb 83f 82f
12:50am 5ft 9s 6s 13 18 mph 1015.1mb 83f 82f
Sun 09/14 11:50pm 5.5ft 15s 7s 13 18 mph 1015.1mb 83f 82f
10:50pm 5ft 15s 6s 13 16 mph 1014.7mb 83f 82f
9:50pm 5ft 9s 7s 16 18 mph 1014.2mb 83f 82f
8:50pm 5ft 15s 7s 13 18 mph 1013.7mb 83f 82f
7:50pm 5ft 8s 6s 13 16 mph 1013.5mb 83f 82f
6:50pm 5ft 9s 6s 11 16 mph 1013.4mb 83f 82f
5:50pm 5ft 8s 6s 13 16 mph 1013.4mb 83f 82f
4:50pm 5ft 9s 6s 13 16 mph 1013.7mb 83f 82f
3:50pm 5ft 8s 6s 16 18 mph 1014.4mb 83f 82f
2:50pm 5ft 9s 6s 13 16 mph 1015mb 83f 82f
1:50pm 5ft 7s 6s 13 16 mph 1015.2mb 83f 82f
12:50pm 5ft 9s 6s 13 16 mph 1015.2mb 83f 82f
11:50am 5ft 9s 6s 13 16 mph 1015.1mb 83f 82f
10:50am 5ft 8s 6s 11 16 mph 1014.7mb 83f 82f
9:50am 5ft 8s 7s 13 16 mph 1014.2mb 83f 82f
8:50am 5ft 8s 7s 13 16 mph 1013.6mb 83f 81f
7:50am 5ft 8s 7s 13 16 mph 1013.5mb 83f 81f
6:50am 4.5ft 8s 7s 11 16 mph 1013.5mb 83f 81f
5:50am 5ft 8s 7s 11 13 mph 1013.7mb 83f 81f
4:50am 5ft 8s 8s 11 13 mph 1014.1mb 83f 82f
3:50am 5ft 8s 8s 9 11 mph 1014.5mb 83f 81f
2:50am 5ft 8s 7s 7 9 mph 1014.9mb 83f 82f
1:50am 5ft 8s 7s 9 11 mph 1015.1mb 83f 82f
12:50am 5.5ft 8s 7s 9 11 mph 1015.3mb 83f 82f
Sat 09/13 11:50pm 5ft 8s 7s 7 9 mph 1015.3mb 83f 82f
8:50pm 5ft 8s 7s 7 11 mph 1013.9mb 85f 82f
7:50pm 5ft 9s 8s 2 4 mph 1013.4mb 85f 82f
6:50pm 5ft 8s 8s 2 4 mph 1013mb 85f 82f
5:50pm 5ft 9s 8s 4 7 mph 1013.1mb 85f 82f
4:50pm 4.5ft 8s 8s 7 9 mph 1013.4mb 85f 82f
3:50pm 5.5ft 9s 8s 2 4 mph 1013.9mb 85f 82f
2:50pm 5ft 9s 7s 4 7 mph 1014.7mb 84f 82f
1:50pm 5ft 9s 8s 4 7 mph 1014.7mb 84f 81f
12:50pm 5ft 9s 7s 4 7 mph 1014.6mb 83f 81f
11:50am 5ft 9s 7s 4 7 mph 1014.4mb 83f 81f
10:50am 5ft 9s 7s 7 9 mph 1013.5mb 83f 81f
9:50am 5ft 10s 7s 7
mph
1013.1mb 83f 81f